Time;durP1;ratioP1;P1;durP2;ratioP2;P2;SDS_P1;SDS_P2;PMS_P1;PMS_P2;Temp;Humidity;BMP_temperature;BMP_pressure;BME280_temperature;BME280_humidity;BME280_pressure;Samples;Min_cycle;Max_cycle;Signal;HPM_P1;HPM_P2
2023/10/21 00:02:21;;;;;;;13.38;7.47;;;11.80;99.90;;;;;;5084205;28;20621;-89
2023/10/21 00:04:47;;;;;;;14.80;6.72;;;11.80;99.90;;;;;;5094329;28;20527;-89
2023/10/21 00:07:12;;;;;;;15.68;6.80;;;11.80;99.90;;;;;;5077728;28;20039;-89
2023/10/21 00:09:38;;;;;;;15.25;8.43;;;11.80;99.90;;;;;;5077530;28;20035;-89
2023/10/21 00:12:06;;;;;;;12.02;5.82;;;11.70;99.90;;;;;;5093787;28;20102;-89
2023/10/21 00:14:33;;;;;;;28.50;21.77;;;11.70;99.90;;;;;;5094450;28;20448;-90
2023/10/21 00:16:59;;;;;;;19.45;7.35;;;11.80;99.90;;;;;;5093677;28;20071;-87
2023/10/21 00:19:25;;;;;;;13.00;6.07;;;11.80;99.90;;;;;;5077032;28;20517;-88
2023/10/21 00:21:50;;;;;;;19.30;8.00;;;11.70;99.90;;;;;;5094017;28;20039;-87
2023/10/21 00:24:16;;;;;;;12.57;6.07;;;11.70;99.90;;;;;;5076705;28;20039;-87
2023/10/21 00:26:47;;;;;;;11.88;6.22;;;11.70;99.90;;;;;;5093949;28;20078;-87
2023/10/21 00:29:14;;;;;;;12.57;6.53;;;11.70;99.90;;;;;;5094081;28;20470;-87
2023/10/21 00:31:43;;;;;;;11.68;6.18;;;11.70;99.90;;;;;;5093385;28;20047;-87
2023/10/21 00:34:12;;;;;;;15.27;6.90;;;11.70;99.90;;;;;;5076892;28;20043;-87
2023/10/21 00:36:38;;;;;;;15.55;6.18;;;11.70;99.90;;;;;;5077041;28;20040;-87
2023/10/21 00:39:10;;;;;;;11.32;5.82;;;11.60;99.90;;;;;;5102257;28;20039;-87
2023/10/21 00:41:36;;;;;;;20.83;17.42;;;11.60;99.90;;;;;;5097204;28;20043;-83
2023/10/21 00:44:04;;;;;;;15.18;6.18;;;11.70;99.90;;;;;;5097343;28;20040;-87
2023/10/21 00:46:30;;;;;;;14.85;6.47;;;11.70;99.90;;;;;;5069621;28;20115;-88
2023/10/21 00:48:55;;;;;;;21.13;16.75;;;11.60;99.90;;;;;;5094334;28;20146;-88
2023/10/21 00:51:21;;;;;;;12.65;5.85;;;11.70;99.90;;;;;;5094606;28;20169;-88
2023/10/21 00:53:47;;;;;;;10.00;5.22;;;11.60;99.90;;;;;;5077684;28;20126;-86
2023/10/21 00:56:13;;;;;;;13.77;5.90;;;11.60;99.90;;;;;;5076915;28;20047;-86
2023/10/21 00:58:40;;;;;;;20.95;17.73;;;11.50;99.90;;;;;;5101480;28;20039;-86
2023/10/21 01:01:07;;;;;;;10.95;5.57;;;11.60;99.90;;;;;;5095587;28;20438;-87
2023/10/21 01:03:34;;;;;;;12.73;6.22;;;11.60;99.90;;;;;;5076301;28;20043;-87
2023/10/21 01:05:59;;;;;;;11.55;7.00;;;11.50;99.90;;;;;;5075933;28;20427;-87
2023/10/21 01:08:25;;;;;;;11.95;5.90;;;11.50;99.90;;;;;;5117867;28;20043;-87
2023/10/21 01:10:51;;;;;;;11.00;5.68;;;11.50;99.90;;;;;;5092578;28;20042;-88
2023/10/21 01:13:17;;;;;;;10.02;4.65;;;11.40;99.90;;;;;;5076557;28;20039;-88
2023/10/21 01:15:43;;;;;;;13.35;5.80;;;11.50;99.90;;;;;;5093454;28;20122;-88
2023/10/21 01:18:08;;;;;;;10.85;5.10;;;11.40;99.90;;;;;;5093750;28;20070;-88
2023/10/21 01:20:44;;;;;;;17.77;13.93;;;11.40;99.90;;;;;;5095948;28;20575;-88
2023/10/21 01:23:15;;;;;;;11.85;5.50;;;11.50;99.90;;;;;;5075968;28;20050;-89
2023/10/21 01:25:41;;;;;;;10.18;4.95;;;11.50;99.90;;;;;;5076904;28;20028;-88
2023/10/21 01:28:06;;;;;;;11.50;4.72;;;11.40;99.90;;;;;;5076699;28;20455;-88
2023/10/21 01:30:32;;;;;;;19.15;14.23;;;11.40;99.90;;;;;;5096352;28;20035;-88
2023/10/21 01:32:57;;;;;;;10.93;4.97;;;11.50;99.90;;;;;;5096815;28;20059;-88
2023/10/21 01:35:23;;;;;;;14.80;4.90;;;11.50;99.90;;;;;;5097127;28;20031;-87
2023/10/21 01:37:49;;;;;;;11.88;5.30;;;11.40;99.90;;;;;;5097190;28;20043;-89
2023/10/21 01:40:14;;;;;;;12.52;4.93;;;11.40;99.90;;;;;;5080282;28;20181;-88
2023/10/21 01:42:41;;;;;;;9.48;4.00;;;11.40;99.90;;;;;;5096936;28;20040;-88
2023/10/21 01:45:08;;;;;;;10.50;4.20;;;11.40;99.90;;;;;;5097030;28;20114;-88
2023/10/21 01:47:35;;;;;;;10.82;4.43;;;11.30;99.90;;;;;;5080507;28;20043;-88
2023/10/21 01:50:08;;;;;;;10.65;3.95;;;11.30;99.90;;;;;;5079311;28;20038;-88
2023/10/21 01:52:37;;;;;;;15.82;4.97;;;11.30;99.90;;;;;;5079857;28;20100;-89
2023/10/21 01:55:08;;;;;;;11.45;5.53;;;11.30;99.90;;;;;;5080107;28;20039;-88
2023/10/21 01:57:34;;;;;;;14.55;5.70;;;11.30;99.90;;;;;;5079869;28;20436;-88
2023/10/21 02:00:00;;;;;;;14.20;5.82;;;11.30;99.90;;;;;;5080126;28;20039;-88
2023/10/21 02:02:25;;;;;;;10.43;4.93;;;11.30;99.90;;;;;;5079754;28;20521;-88
2023/10/21 02:04:51;;;;;;;17.65;14.10;;;11.20;99.90;;;;;;5079562;28;20093;-88
2023/10/21 02:07:17;;;;;;;10.07;5.25;;;11.30;99.90;;;;;;5080018;28;20032;-88
2023/10/21 02:09:43;;;;;;;10.90;5.18;;;11.30;99.90;;;;;;5097179;28;20510;-88
2023/10/21 02:12:09;;;;;;;12.40;5.38;;;11.30;99.90;;;;;;5097550;28;20065;-88
2023/10/21 02:14:34;;;;;;;12.48;5.60;;;11.20;99.90;;;;;;5081651;28;20039;-88
2023/10/21 02:17:00;;;;;;;9.73;5.07;;;11.20;99.90;;;;;;5079164;28;20039;-88
2023/10/21 02:19:26;;;;;;;10.80;4.38;;;11.20;99.90;;;;;;5079517;28;20292;-88
2023/10/21 02:21:51;;;;;;;18.65;15.57;;;11.20;99.90;;;;;;5078455;28;20430;-88
2023/10/21 02:24:17;;;;;;;11.15;5.13;;;11.30;99.90;;;;;;5079067;28;20084;-89
2023/10/21 02:26:42;;;;;;;12.85;5.97;;;11.20;99.90;;;;;;5079179;28;20054;-87
2023/10/21 02:29:08;;;;;;;12.18;6.63;;;11.20;99.90;;;;;;5079181;28;20032;-88
2023/10/21 02:31:34;;;;;;;11.98;5.50;;;11.20;99.90;;;;;;5079184;28;20043;-87
2023/10/21 02:34:00;;;;;;;10.52;5.22;;;11.10;99.90;;;;;;5078871;28;20062;-87
2023/10/21 02:36:26;;;;;;;12.68;5.93;;;11.10;99.90;;;;;;5079097;28;20040;-87
2023/10/21 02:38:52;;;;;;;15.05;6.00;;;11.10;99.90;;;;;;5079088;28;20055;-88
2023/10/21 02:41:18;;;;;;;12.60;5.93;;;11.10;99.90;;;;;;5078266;28;20032;-87
2023/10/21 02:43:43;;;;;;;12.32;5.70;;;11.10;99.90;;;;;;5096136;28;20563;-87
2023/10/21 02:46:13;;;;;;;9.20;4.75;;;11.10;99.90;;;;;;5078946;28;20027;-88
2023/10/21 02:48:40;;;;;;;13.48;5.70;;;11.10;99.90;;;;;;5095558;28;20039;-88
2023/10/21 02:51:13;;;;;;;19.33;16.30;;;11.10;99.90;;;;;;5094957;28;20456;-88
2023/10/21 02:53:42;;;;;;;12.15;6.53;;;11.20;99.90;;;;;;5095465;28;20058;-87
2023/10/21 02:56:13;;;;;;;14.20;5.90;;;11.20;99.90;;;;;;5078117;28;20043;-88
2023/10/21 02:58:39;;;;;;;11.50;5.55;;;11.10;99.90;;;;;;5094774;28;20489;-87
2023/10/21 03:01:12;;;;;;;17.73;15.65;;;11.10;99.90;;;;;;5095064;28;20035;-87
2023/10/21 03:03:37;;;;;;;9.65;4.47;;;11.20;99.90;;;;;;5078722;28;20550;-88
2023/10/21 03:06:03;;;;;;;10.43;4.93;;;11.20;99.90;;;;;;5083786;28;20139;-87
2023/10/21 03:08:29;;;;;;;11.90;6.43;;;11.20;99.90;;;;;;5095377;28;20076;-87
2023/10/21 03:10:55;;;;;;;12.00;5.38;;;11.10;99.90;;;;;;5095649;28;20132;-88
2023/10/21 03:13:21;;;;;;;12.32;5.65;;;11.10;99.90;;;;;;5094379;28;20036;-88
2023/10/21 03:15:46;;;;;;;13.10;6.30;;;11.10;99.90;;;;;;5078740;28;20039;-88
2023/10/21 03:18:12;;;;;;;14.00;6.85;;;11.10;99.90;;;;;;5078567;28;20042;-88
2023/10/21 03:20:38;;;;;;;10.68;5.55;;;11.10;99.90;;;;;;5078108;28;20140;-87
2023/10/21 03:23:04;;;;;;;12.70;5.57;;;11.10;99.90;;;;;;5094961;28;20043;-88
2023/10/21 03:25:30;;;;;;;14.20;5.72;;;11.10;99.90;;;;;;5093977;28;20036;-88
2023/10/21 03:27:56;;;;;;;16.92;14.35;;;11.10;99.90;;;;;;5095069;28;20043;-88
2023/10/21 03:30:21;;;;;;;13.40;5.95;;;11.20;99.90;;;;;;5077963;28;20539;-88
2023/10/21 03:32:47;;;;;;;14.82;5.72;;;11.20;99.90;;;;;;5094529;28;20044;-88
2023/10/21 03:35:13;;;;;;;10.85;5.53;;;11.20;99.90;;;;;;5095069;28;20048;-88
2023/10/21 03:37:38;;;;;;;11.35;5.18;;;11.20;99.90;;;;;;5077982;28;20040;-88
2023/10/21 03:40:05;;;;;;;10.02;5.13;;;11.20;99.90;;;;;;5095055;28;20043;-88
2023/10/21 03:42:31;;;;;;;13.40;5.75;;;11.20;99.90;;;;;;5094569;28;20099;-88
2023/10/21 03:44:57;;;;;;;12.60;5.75;;;11.20;99.90;;;;;;5078016;28;20078;-88
2023/10/21 03:47:22;;;;;;;18.75;14.82;;;11.20;99.90;;;;;;5077605;28;20429;-88
2023/10/21 03:49:48;;;;;;;11.25;6.15;;;11.30;99.90;;;;;;5077582;28;20036;-88
2023/10/21 03:52:13;;;;;;;14.05;5.72;;;11.40;99.90;;;;;;5094491;28;20046;-88
2023/10/21 03:54:39;;;;;;;12.35;6.03;;;11.30;99.90;;;;;;5076972;28;20046;-88
2023/10/21 03:57:05;;;;;;;12.00;4.93;;;11.30;99.90;;;;;;5077259;28;20058;-88
2023/10/21 03:59:30;;;;;;;13.50;5.38;;;11.30;99.90;;;;;;5077326;28;20036;-88
2023/10/21 04:01:57;;;;;;;11.73;5.38;;;11.30;99.90;;;;;;5077424;28;20082;-88
2023/10/21 04:04:23;;;;;;;12.50;5.28;;;11.30;99.90;;;;;;5077003;28;20043;-88
2023/10/21 04:06:49;;;;;;;11.75;5.63;;;11.30;99.90;;;;;;5077257;28;20055;-88
2023/10/21 04:09:14;;;;;;;13.32;5.70;;;11.30;99.90;;;;;;5077269;28;20510;-88
2023/10/21 04:11:41;;;;;;;11.02;4.47;;;11.30;99.90;;;;;;5094112;28;20043;-87
2023/10/21 04:14:07;;;;;;;14.82;6.93;;;11.30;99.90;;;;;;5076483;28;20044;-88
2023/10/21 04:16:32;;;;;;;14.07;5.70;;;11.30;99.90;;;;;;5077773;28;20564;-88
2023/10/21 04:18:58;;;;;;;12.15;6.97;;;11.30;99.90;;;;;;5077086;28;20127;-88
2023/10/21 04:21:25;;;;;;;13.43;5.70;;;11.30;99.90;;;;;;5077261;28;20039;-88
2023/10/21 04:23:51;;;;;;;16.58;14.75;;;11.30;99.90;;;;;;5076448;28;20116;-88
2023/10/21 04:26:16;;;;;;;12.32;5.05;;;11.40;99.90;;;;;;5093563;28;20043;-88
2023/10/21 04:28:42;;;;;;;15.50;6.13;;;11.30;99.90;;;;;;5079097;28;20039;-88
2023/10/21 04:31:08;;;;;;;11.85;5.35;;;11.30;99.90;;;;;;5096769;28;20035;-88
2023/10/21 04:33:34;;;;;;;13.27;5.05;;;11.30;99.90;;;;;;5076920;28;20067;-88
2023/10/21 04:36:00;;;;;;;15.23;5.82;;;11.30;99.90;;;;;;5077827;28;20036;-88
2023/10/21 04:38:25;;;;;;;13.85;6.57;;;11.30;99.90;;;;;;5102517;28;20491;-88
2023/10/21 04:40:51;;;;;;;11.30;5.45;;;11.30;99.90;;;;;;5104092;28;20440;-88
2023/10/21 04:43:17;;;;;;;18.15;15.23;;;11.30;99.90;;;;;;5095322;28;20490;-88
2023/10/21 04:45:42;;;;;;;20.88;6.03;;;11.30;99.90;;;;;;5094280;28;20032;-88
2023/10/21 04:48:08;;;;;;;12.63;5.07;;;11.40;99.90;;;;;;5076683;28;20042;-88
2023/10/21 04:50:34;;;;;;;11.65;5.38;;;11.30;99.90;;;;;;5076887;28;20490;-88
2023/10/21 04:52:59;;;;;;;10.48;4.85;;;11.30;99.90;;;;;;5076088;28;20510;-88
2023/10/21 04:55:25;;;;;;;12.45;5.57;;;11.30;99.90;;;;;;5093478;28;20040;-88
2023/10/21 04:57:51;;;;;;;12.40;5.32;;;11.30;99.90;;;;;;5076891;28;20069;-87
2023/10/21 05:00:17;;;;;;;11.60;5.43;;;11.30;99.90;;;;;;5093782;28;20537;-88
2023/10/21 05:02:42;;;;;;;13.02;5.97;;;11.30;99.90;;;;;;5076634;28;20518;-87
2023/10/21 05:05:09;;;;;;;12.18;6.03;;;11.30;99.90;;;;;;5096575;28;20047;-87
2023/10/21 05:07:34;;;;;;;10.65;5.45;;;11.30;99.90;;;;;;5080945;28;20040;-88
2023/10/21 05:10:00;;;;;;;10.85;5.07;;;11.30;99.90;;;;;;5101828;28;20035;-88
2023/10/21 05:12:26;;;;;;;11.60;5.65;;;11.30;99.90;;;;;;5080871;28;20040;-87
2023/10/21 05:14:52;;;;;;;16.70;13.75;;;11.30;99.90;;;;;;5080400;28;20043;-87
2023/10/21 05:17:17;;;;;;;12.20;5.47;;;11.40;99.90;;;;;;5097463;28;20039;-87
2023/10/21 05:19:43;;;;;;;11.23;4.63;;;11.40;99.90;;;;;;5080523;28;20047;-87
2023/10/21 05:22:08;;;;;;;10.18;4.63;;;11.40;99.90;;;;;;5080585;28;20036;-87
2023/10/21 05:24:34;;;;;;;12.82;5.32;;;11.40;99.90;;;;;;5096703;28;20181;-87
2023/10/21 05:27:00;;;;;;;10.77;4.95;;;11.40;99.90;;;;;;5080547;28;20043;-87
2023/10/21 05:29:26;;;;;;;17.65;14.13;;;11.40;99.90;;;;;;5097376;28;20517;-87
2023/10/21 05:31:53;;;;;;;12.93;5.50;;;11.50;99.90;;;;;;5096930;28;20050;-87
2023/10/21 05:34:19;;;;;;;11.73;5.07;;;11.50;99.90;;;;;;5079847;28;20122;-87
2023/10/21 05:36:45;;;;;;;15.77;5.13;;;11.40;99.90;;;;;;5097086;28;20073;-87
2023/10/21 05:39:14;;;;;;;16.98;13.60;;;11.40;99.90;;;;;;5096857;28;20032;-87
2023/10/21 05:41:43;;;;;;;11.38;4.90;;;11.50;99.90;;;;;;5080567;28;20482;-87
2023/10/21 05:44:09;;;;;;;11.63;5.15;;;11.50;99.90;;;;;;5096960;28;20036;-87
2023/10/21 05:46:35;;;;;;;17.98;14.07;;;11.50;99.90;;;;;;5080486;28;20085;-87
2023/10/21 05:49:02;;;;;;;12.52;5.05;;;11.50;99.90;;;;;;5096741;28;20035;-87
2023/10/21 05:51:29;;;;;;;9.43;4.65;;;11.50;99.90;;;;;;5079318;28;20071;-88
2023/10/21 05:53:57;;;;;;;9.52;5.22;;;11.50;99.90;;;;;;5102109;27;20039;-88
2023/10/21 05:56:23;;;;;;;9.90;4.38;;;11.50;99.90;;;;;;5100403;28;20118;-87
2023/10/21 05:58:49;;;;;;;16.65;13.23;;;11.50;99.90;;;;;;5082358;28;20446;-88
2023/10/21 06:01:16;;;;;;;11.20;5.47;;;11.50;99.90;;;;;;5079675;28;20085;-88
2023/10/21 06:03:41;;;;;;;12.50;5.45;;;11.60;99.90;;;;;;5096600;28;20091;-87
2023/10/21 06:06:08;;;;;;;11.07;4.47;;;11.60;99.90;;;;;;5102385;28;20078;-88
2023/10/21 06:08:34;;;;;;;10.05;5.45;;;11.60;99.90;;;;;;5096144;28;20550;-87
2023/10/21 06:10:59;;;;;;;11.98;5.13;;;11.50;99.90;;;;;;5096780;28;20042;-87
2023/10/21 06:13:25;;;;;;;12.70;5.03;;;11.60;99.90;;;;;;5079531;28;20075;-87
2023/10/21 06:15:51;;;;;;;10.90;5.35;;;11.50;99.90;;;;;;5094940;28;20046;-88
2023/10/21 06:18:17;;;;;;;13.95;5.20;;;11.60;99.90;;;;;;5079633;28;20039;-87
2023/10/21 06:20:49;;;;;;;10.82;6.07;;;11.60;99.90;;;;;;5081701;27;20038;-87
2023/10/21 06:23:16;;;;;;;9.95;5.88;;;11.60;99.90;;;;;;5098720;28;20051;-87
2023/10/21 06:25:42;;;;;;;11.98;5.75;;;11.60;99.90;;;;;;5086092;28;20054;-87
2023/10/21 06:28:07;;;;;;;13.05;5.47;;;11.60;99.90;;;;;;5079340;28;20131;-86
2023/10/21 06:30:36;;;;;;;11.02;5.32;;;11.60;99.90;;;;;;5100172;28;20043;-85
2023/10/21 06:33:03;;;;;;;14.45;6.57;;;11.70;99.90;;;;;;5099753;28;20039;-86
2023/10/21 06:35:29;;;;;;;12.93;5.53;;;11.70;99.90;;;;;;5088568;28;20399;-86
2023/10/21 06:37:54;;;;;;;19.58;14.40;;;11.70;99.90;;;;;;5088918;28;20134;-87
2023/10/21 06:40:20;;;;;;;10.95;5.25;;;11.80;99.90;;;;;;5103956;28;20040;-87
2023/10/21 06:42:46;;;;;;;12.05;4.60;;;11.80;99.90;;;;;;5082525;28;20472;-88
2023/10/21 06:45:11;;;;;;;11.95;4.97;;;11.80;99.90;;;;;;5087789;28;20043;-87
2023/10/21 06:47:37;;;;;;;12.10;5.50;;;11.80;99.90;;;;;;5095984;28;20036;-87
2023/10/21 06:50:04;;;;;;;17.63;13.43;;;11.80;99.90;;;;;;5103464;28;20038;-87
2023/10/21 06:52:31;;;;;;;11.55;5.68;;;11.90;99.90;;;;;;5070758;28;20049;-87
2023/10/21 06:54:57;;;;;;;10.65;4.63;;;11.90;99.90;;;;;;5078512;28;20587;-87
2023/10/21 06:57:23;;;;;;;11.48;4.82;;;11.90;99.90;;;;;;5084084;27;20034;-87
2023/10/21 06:59:52;;;;;;;12.32;5.43;;;11.90;99.90;;;;;;5081451;28;20043;-87
2023/10/21 07:02:17;;;;;;;17.98;15.02;;;11.90;99.90;;;;;;5097187;28;20422;-87
2023/10/21 07:04:43;;;;;;;12.65;5.80;;;12.00;99.90;;;;;;5101578;28;20487;-88
2023/10/21 07:07:10;;;;;;;13.20;5.45;;;12.00;99.90;;;;;;5078582;28;20124;-88
2023/10/21 07:09:37;;;;;;;12.70;5.60;;;12.00;99.90;;;;;;5075358;28;20054;-88
2023/10/21 07:12:04;;;;;;;11.55;4.95;;;12.00;99.90;;;;;;5105007;28;20256;-88
2023/10/21 07:14:29;;;;;;;17.02;14.63;;;12.10;99.90;;;;;;5079397;28;20035;-88
2023/10/21 07:16:55;;;;;;;10.48;5.40;;;12.20;99.90;;;;;;5078366;28;20046;-88
2023/10/21 07:19:22;;;;;;;11.23;5.35;;;12.20;99.90;;;;;;5086389;28;20456;-88
2023/10/21 07:21:48;;;;;;;18.40;13.80;;;12.30;99.90;;;;;;5078407;28;20399;-88
2023/10/21 07:24:14;;;;;;;9.77;5.03;;;12.40;99.90;;;;;;5095353;28;20081;-88
2023/10/21 07:26:40;;;;;;;13.15;5.10;;;12.40;99.90;;;;;;5077756;28;20046;-88
2023/10/21 07:29:07;;;;;;;13.40;5.03;;;12.40;99.90;;;;;;5078284;28;20039;-88
2023/10/21 07:31:34;;;;;;;14.93;13.00;;;12.40;99.90;;;;;;5078271;28;20039;-87
2023/10/21 07:34:00;;;;;;;17.17;13.70;;;12.50;99.90;;;;;;5078061;28;20134;-88
2023/10/21 07:36:25;;;;;;;10.48;4.30;;;12.70;99.90;;;;;;5078252;28;20044;-88
2023/10/21 07:38:52;;;;;;;11.65;4.65;;;12.70;99.90;;;;;;5077538;28;20043;-88
2023/10/21 07:41:19;;;;;;;10.60;5.53;;;12.70;99.90;;;;;;5097577;27;20047;-87
2023/10/21 07:43:45;;;;;;;11.85;5.93;;;12.70;99.90;;;;;;5083165;28;20038;-88
2023/10/21 07:46:10;;;;;;;15.73;12.82;;;12.80;99.90;;;;;;5080147;28;20040;-87
2023/10/21 07:48:36;;;;;;;13.40;5.55;;;12.90;99.90;;;;;;5094374;28;20047;-88
2023/10/21 07:51:02;;;;;;;10.80;5.32;;;13.10;99.90;;;;;;5082537;28;20040;-88
2023/10/21 07:53:29;;;;;;;14.57;4.95;;;13.20;99.90;;;;;;5094313;28;20047;-88
2023/10/21 07:55:54;;;;;;;9.88;4.38;;;13.20;99.90;;;;;;5093684;28;20521;-88
2023/10/21 07:58:20;;;;;;;15.02;11.35;;;13.30;99.90;;;;;;5077053;28;20031;-88
2023/10/21 08:00:46;;;;;;;10.68;4.90;;;13.40;99.90;;;;;;5099493;28;20032;-87
2023/10/21 08:03:11;;;;;;;14.80;11.77;;;13.40;99.90;;;;;;5077055;28;20043;-88
2023/10/21 08:05:38;;;;;;;10.82;4.97;;;13.50;99.90;;;;;;5102491;28;20438;-88
2023/10/21 08:08:04;;;;;;;10.65;5.03;;;13.50;99.90;;;;;;5093428;28;20081;-88
2023/10/21 08:10:30;;;;;;;9.75;4.90;;;13.50;99.90;;;;;;5101772;28;20036;-88
2023/10/21 08:12:55;;;;;;;10.02;4.45;;;13.60;99.90;;;;;;5077566;28;20061;-88
2023/10/21 08:15:21;;;;;;;13.02;5.18;;;13.50;99.90;;;;;;5077074;28;20035;-87
2023/10/21 08:17:47;;;;;;;14.40;10.65;;;13.60;99.90;;;;;;5077038;28;20989;-88
2023/10/21 08:20:12;;;;;;;16.90;11.43;;;13.70;99.90;;;;;;5076576;28;20127;-88
2023/10/21 08:22:39;;;;;;;11.35;4.97;;;13.80;99.90;;;;;;5093938;28;20043;-87
2023/10/21 08:25:06;;;;;;;11.05;5.18;;;13.80;99.90;;;;;;5077020;28;20093;-88
2023/10/21 08:27:32;;;;;;;11.05;4.57;;;13.80;99.90;;;;;;5077314;28;20036;-87
2023/10/21 08:29:57;;;;;;;8.75;4.05;;;13.80;99.90;;;;;;5093674;28;20047;-87
2023/10/21 08:32:23;;;;;;;11.13;4.15;;;13.90;99.90;;;;;;5093452;28;20058;-88
2023/10/21 08:34:48;;;;;;;15.57;9.25;;;13.90;99.90;;;;;;5085934;28;20406;-88
2023/10/21 08:37:16;;;;;;;13.95;8.63;;;14.00;99.90;;;;;;5075418;28;20040;-87
2023/10/21 08:39:43;;;;;;;12.05;5.07;;;14.20;99.90;;;;;;5083497;28;20046;-88
2023/10/21 08:42:09;;;;;;;12.20;7.25;;;14.30;99.90;;;;;;5099716;28;20048;-88
2023/10/21 08:44:36;;;;;;;11.18;7.28;;;14.30;99.90;;;;;;5085060;28;20031;-88
2023/10/21 08:47:05;;;;;;;13.40;7.10;;;14.50;99.90;;;;;;5093586;28;20074;-88
2023/10/21 08:49:32;;;;;;;11.95;6.65;;;14.60;99.90;;;;;;5068625;28;20040;-89
2023/10/21 08:52:00;;;;;;;7.82;3.50;;;14.60;99.90;;;;;;5076759;28;20057;-88
2023/10/21 08:54:26;;;;;;;12.57;6.85;;;14.70;99.90;;;;;;5093596;28;20047;-88
2023/10/21 08:56:52;;;;;;;10.20;4.10;;;14.70;99.90;;;;;;5081612;28;20051;-88
2023/10/21 08:59:18;;;;;;;11.70;6.45;;;14.70;99.90;;;;;;5082348;28;20390;-88
2023/10/21 09:01:45;;;;;;;8.93;3.50;;;14.80;99.90;;;;;;5101151;28;20043;-89
2023/10/21 09:04:13;;;;;;;8.38;4.00;;;14.80;99.90;;;;;;5085266;28;20061;-88
2023/10/21 09:06:59;;;;;;;9.73;3.97;;;14.80;99.90;;;;;;5098091;28;20043;-89
2023/10/21 09:09:27;;;;;;;11.68;5.40;;;14.80;99.90;;;;;;5077400;28;20038;-89
2023/10/21 09:12:10;;;;;;;10.65;4.90;;;14.90;99.90;;;;;;5093016;28;20078;-88
2023/10/21 09:14:57;;;;;;;11.27;2.78;;;15.00;99.90;;;;;;5091462;28;20032;-89
2023/10/21 09:17:40;;;;;;;9.18;2.60;;;14.90;99.90;;;;;;5092744;28;20528;-88
2023/10/21 09:20:09;;;;;;;7.75;2.33;;;14.90;99.90;;;;;;5090026;28;20410;-88
2023/10/21 09:22:36;;;;;;;8.75;3.92;;;14.90;99.90;;;;;;5076019;28;20126;-89
2023/10/21 09:25:28;;;;;;;5.47;2.35;;;15.00;99.90;;;;;;5095254;28;20084;-88
2023/10/21 09:27:55;;;;;;;9.18;3.25;;;15.00;99.90;;;;;;5092022;28;20088;-88
2023/10/21 09:30:23;;;;;;;5.65;1.70;;;15.00;99.90;;;;;;5077576;28;20036;-88
2023/10/21 09:32:52;;;;;;;4.53;1.75;;;15.00;99.90;;;;;;5082324;28;20047;-88
2023/10/21 09:35:27;;;;;;;8.18;2.67;;;15.00;99.90;;;;;;5106995;28;20149;-89
2023/10/21 09:37:54;;;;;;;7.97;2.55;;;15.00;99.90;;;;;;5100821;28;20047;-88
2023/10/21 09:40:21;;;;;;;2.80;0.80;;;15.00;99.90;;;;;;5076040;28;20077;-88
2023/10/21 09:42:52;;;;;;;3.10;1.27;;;15.00;99.90;;;;;;5087049;28;20095;-88
2023/10/21 09:45:18;;;;;;;3.17;1.20;;;14.90;99.90;;;;;;5104693;28;20506;-89
2023/10/21 09:47:45;;;;;;;6.35;2.15;;;14.80;99.90;;;;;;5102161;28;20075;-88
2023/10/21 09:50:15;;;;;;;5.03;1.25;;;14.80;99.90;;;;;;5091299;27;20059;-88
2023/10/21 09:53:07;;;;;;;5.97;2.33;;;14.80;99.90;;;;;;5106198;27;20094;-88
2023/10/21 09:55:33;;;;;;;2.83;1.10;;;14.80;99.90;;;;;;5095046;28;20035;-88
2023/10/21 09:58:00;;;;;;;5.68;2.20;;;14.70;99.90;;;;;;5097291;28;20063;-88
2023/10/21 10:00:26;;;;;;;6.70;2.10;;;14.70;99.90;;;;;;5083912;28;20122;-88
2023/10/21 10:02:54;;;;;;;0.75;0.50;;;14.80;99.90;;;;;;5096768;28;20127;-88
2023/10/21 10:05:21;;;;;;;4.75;1.65;;;14.70;99.90;;;;;;5094517;28;20152;-88
2023/10/21 10:07:48;;;;;;;0.38;0.32;;;14.60;99.90;;;;;;5094660;28;20372;-88
2023/10/21 10:10:16;;;;;;;5.47;1.15;;;14.50;99.90;;;;;;5077423;28;20039;-88
2023/10/21 10:13:03;;;;;;;5.57;1.70;;;14.50;99.90;;;;;;5102645;28;20514;-88
2023/10/21 10:15:33;;;;;;;1.48;0.40;;;14.60;99.90;;;;;;5078030;28;20043;-89
2023/10/21 10:18:00;;;;;;;3.53;0.98;;;14.70;99.90;;;;;;5094022;28;20047;-89
2023/10/21 10:20:27;;;;;;;3.58;1.40;;;14.80;99.90;;;;;;5077306;28;20123;-88
2023/10/21 10:23:03;;;;;;;4.53;1.27;;;14.90;99.90;;;;;;5095885;28;20521;-89
2023/10/21 10:25:33;;;;;;;0.52;0.40;;;15.00;99.90;;;;;;5079657;28;20118;-88
2023/10/21 10:28:04;;;;;;;3.97;1.08;;;15.10;99.90;;;;;;5078872;28;20483;-89
2023/10/21 10:30:34;;;;;;;3.67;1.13;;;15.20;99.90;;;;;;5079499;28;20063;-88
2023/10/21 10:33:08;;;;;;;1.65;0.70;;;15.30;99.90;;;;;;5095932;28;20085;-89
2023/10/21 10:35:41;;;;;;;2.53;0.70;;;15.30;99.90;;;;;;5089163;28;20065;-88
2023/10/21 10:38:27;;;;;;;4.38;1.17;;;15.30;99.90;;;;;;5078996;28;20040;-88
2023/10/21 10:41:06;;;;;;;1.85;0.75;;;15.30;99.90;;;;;;5078418;28;20075;-88
2023/10/21 10:43:32;;;;;;;4.15;1.00;;;15.30;99.90;;;;;;5104406;28;20038;-89
2023/10/21 10:46:00;;;;;;;2.78;1.00;;;15.50;99.90;;;;;;5096218;28;20491;-89
2023/10/21 10:48:29;;;;;;;4.32;1.20;;;15.50;99.90;;;;;;5078285;28;20475;-88
2023/10/21 10:51:00;;;;;;;3.90;1.00;;;15.60;99.90;;;;;;5095791;28;20474;-87
2023/10/21 10:53:26;;;;;;;2.08;0.45;;;15.60;99.90;;;;;;5084092;28;20394;-88
2023/10/21 10:55:55;;;;;;;3.92;0.90;;;15.50;99.90;;;;;;5095227;28;20531;-88
2023/10/21 10:58:21;;;;;;;2.53;0.82;;;15.60;99.90;;;;;;5094798;28;20039;-88
2023/10/21 11:00:48;;;;;;;4.03;0.95;;;15.80;99.90;;;;;;5078897;28;20449;-89
2023/10/21 11:03:33;;;;;;;1.88;0.57;;;15.90;99.90;;;;;;5077474;28;20043;-89
2023/10/21 11:05:59;;;;;;;1.05;0.47;;;15.90;99.90;;;;;;5093009;28;20110;-88
2023/10/21 11:08:26;;;;;;;1.55;0.52;;;15.80;99.90;;;;;;5083999;27;20453;-90
2023/10/21 11:11:05;;;;;;;4.32;0.90;;;15.70;99.90;;;;;;5085993;27;20038;-89
2023/10/21 11:13:31;;;;;;;3.42;0.98;;;15.70;99.90;;;;;;5080653;28;20040;-90
2023/10/21 11:15:57;;;;;;;0.80;0.50;;;15.70;99.90;;;;;;5095454;28;20077;-89
2023/10/21 11:18:25;;;;;;;2.25;0.70;;;15.60;99.90;;;;;;5085934;28;20554;-89
2023/10/21 11:20:54;;;;;;;1.13;0.60;;;15.50;99.90;;;;;;5078411;28;20078;-90
2023/10/21 11:23:23;;;;;;;4.97;0.90;;;15.40;99.90;;;;;;5078268;28;20403;-86
2023/10/21 11:25:52;;;;;;;3.13;0.95;;;15.50;99.90;;;;;;5084560;28;20102;-89
2023/10/21 11:28:19;;;;;;;3.75;1.10;;;15.50;99.90;;;;;;5080794;28;20058;-89
2023/10/21 11:30:45;;;;;;;4.25;1.02;;;15.50;99.90;;;;;;5078953;28;20510;-89
2023/10/21 11:33:12;;;;;;;0.95;0.50;;;15.50;99.90;;;;;;5079008;28;20406;-89
2023/10/21 11:35:43;;;;;;;1.15;0.57;;;15.40;99.90;;;;;;5079836;28;20177;-89
2023/10/21 11:38:12;;;;;;;5.13;1.20;;;15.30;99.90;;;;;;5086402;28;20043;-89
2023/10/21 11:40:38;;;;;;;0.57;0.47;;;15.30;99.90;;;;;;5096286;28;20054;-89
2023/10/21 11:43:08;;;;;;;4.65;1.00;;;15.20;99.90;;;;;;5097841;28;20044;-89
2023/10/21 11:45:34;;;;;;;1.08;0.43;;;15.20;99.90;;;;;;5078917;28;20035;-89
2023/10/21 11:48:00;;;;;;;3.97;1.10;;;15.10;99.90;;;;;;5081695;28;20521;-89
2023/10/21 11:50:35;;;;;;;3.25;0.80;;;15.10;99.90;;;;;;5074630;28;20036;-90
2023/10/21 11:53:03;;;;;;;2.00;0.68;;;15.10;99.90;;;;;;5099034;28;20452;-90
2023/10/21 11:56:00;;;;;;;3.63;0.95;;;15.10;99.90;;;;;;5094669;28;20051;-90
2023/10/21 12:13:17;;;;;;;4.35;1.00;;;15.20;99.90;;;;;;5094257;28;20090;-90
2023/10/21 12:21:17;;;;;;;5.22;1.10;;;15.60;99.90;;;;;;5111068;27;20047;-89
2023/10/21 12:26:20;;;;;;;3.03;0.50;;;15.90;99.90;;;;;;5096771;28;20494;-89
2023/10/21 12:36:35;;;;;;;5.75;1.05;;;16.10;99.90;;;;;;5102371;28;20074;-90
2023/10/21 12:41:43;;;;;;;2.58;0.68;;;16.40;99.90;;;;;;5087689;28;20198;-89
2023/10/21 12:44:15;;;;;;;3.88;1.00;;;16.60;99.90;;;;;;5076814;28;20080;-87
2023/10/21 12:46:44;;;;;;;6.20;1.10;;;16.70;99.90;;;;;;5083929;28;20042;-87
2023/10/21 12:49:16;;;;;;;2.83;0.90;;;16.90;99.90;;;;;;5093888;28;20046;-88
2023/10/21 12:51:41;;;;;;;6.10;1.17;;;17.10;99.90;;;;;;5077273;28;20085;-87
2023/10/21 12:54:10;;;;;;;2.90;0.70;;;17.50;99.90;;;;;;5076668;28;20039;-88
2023/10/21 12:56:40;;;;;;;3.85;0.90;;;18.20;99.90;;;;;;5076830;28;20093;-88
2023/10/21 12:59:06;;;;;;;5.00;1.00;;;19.10;99.90;;;;;;5093119;28;20047;-88
2023/10/21 13:01:38;;;;;;;4.72;1.00;;;19.70;99.90;;;;;;5102310;28;20078;-88
2023/10/21 13:04:04;;;;;;;3.53;0.90;;;19.70;99.90;;;;;;5093652;28;20047;-89
2023/10/21 13:06:30;;;;;;;4.47;1.10;;;19.60;97.80;;;;;;5077359;28;20062;-89
2023/10/21 13:08:56;;;;;;;6.68;1.40;;;19.40;96.30;;;;;;5094078;28;20071;-89
2023/10/21 13:11:22;;;;;;;5.38;1.17;;;19.20;98.50;;;;;;5084850;28;20078;-89
2023/10/21 13:13:50;;;;;;;4.85;0.90;;;19.80;95.90;;;;;;5094260;28;20036;-89